Time,TemperatureF,DewpointF,PressureIn,WindDirection,WindDirectionDegrees,WindSpeedMPH,WindSpeedGustMPH,Humidity,HourlyPrecipIn,Conditions,Clouds,dailyrainin,SoftwareType,DateUTC
2013-03-12 00:00:00,35.6,29.1,29.00,SW,225,7.0,11.0,77,0.00,,,0.00,Weather View 32 v70,2013-03-12 04:00:00,
2013-03-12 00:10:00,35.6,28.5,29.00,SSW,198,4.0,11.0,75,0.00,,,0.00,Weather View 32 v70,2013-03-12 04:10:00,
2013-03-12 00:20:00,35.8,28.3,29.00,SW,221,3.0,11.0,74,0.00,,,0.00,Weather View 32 v70,2013-03-12 04:20:00,
2013-03-12 00:30:00,35.6,27.5,29.00,WSW,241,4.0,11.0,72,0.00,,,0.00,Weather View 32 v70,2013-03-12 04:30:00,
2013-03-12 00:40:00,35.4,27.6,29.00,WSW,250,5.0,10.0,73,0.00,,,0.00,Weather View 32 v70,2013-03-12 04:40:00,
2013-03-12 00:50:00,35.2,28.4,29.03,West,271,3.0,9.0,76,0.00,,,0.00,Weather View 32 v70,2013-03-12 04:50:00,
2013-03-12 00:59:00,34.9,28.4,29.03,SW,235,4.0,9.0,77,0.00,,,0.00,Weather View 32 v70,2013-03-12 04:59:00,
2013-03-12 01:09:00,34.7,29.2,29.03,SW,228,4.0,9.0,80,0.00,,,0.00,Weather View 32 v70,2013-03-12 05:09:00,
2013-03-12 01:19:00,34.5,29.3,29.03,SW,218,5.0,8.0,81,0.00,,,0.00,Weather View 32 v70,2013-03-12 05:19:00,
2013-03-12 01:30:00,34.5,29.6,29.03,SW,214,5.0,8.0,82,0.00,,,0.00,Weather View 32 v70,2013-03-12 05:30:00,
2013-03-12 01:35:00,34.5,29.6,29.03,SW,214,5.0,8.0,82,0.00,,,0.00,Weather View 32 v70,2013-03-12 05:35:00,
2013-03-12 01:39:00,34.5,29.6,29.03,SSW,201,4.0,8.0,82,0.00,,,0.00,Weather View 32 v70,2013-03-12 05:39:00,
2013-03-12 01:49:00,34.2,29.2,29.03,South,184,4.0,8.0,82,0.00,,,0.00,Weather View 32 v70,2013-03-12 05:49:00,
2013-03-12 01:59:00,34.2,28.9,29.03,SW,223,5.0,8.0,81,0.00,,,0.00,Weather View 32 v70,2013-03-12 05:59:00,
2013-03-12 02:10:00,34.3,27.9,29.03,SW,219,8.0,11.0,77,0.00,,,0.00,Weather View 32 v70,2013-03-12 06:10:00,
2013-03-12 02:20:00,34.3,27.9,29.06,SW,219,5.0,12.0,77,0.00,,,0.00,Weather View 32 v70,2013-03-12 06:20:00,
2013-03-12 02:30:00,34.3,27.9,29.06,SSW,192,4.0,12.0,77,0.00,,,0.00,Weather View 32 v70,2013-03-12 06:30:00,
2013-03-12 02:36:00,34.3,27.9,29.06,SSW,192,4.0,12.0,77,0.00,,,0.00,Weather View 32 v70,2013-03-12 06:36:00,
2013-03-12 02:50:00,34.2,28.0,29.06,SW,230,4.0,12.0,78,0.00,,,0.00,Weather View 32 v70,2013-03-12 06:50:00,
2013-03-12 02:59:00,34.2,28.3,29.06,SSW,204,7.0,12.0,79,0.00,,,0.00,Weather View 32 v70,2013-03-12 06:59:00,
2013-03-12 03:10:00,34.2,28.6,29.06,SSW,212,8.0,12.0,80,0.00,,,0.00,Weather View 32 v70,2013-03-12 07:10:00,
2013-03-12 03:20:00,34.0,28.8,29.06,SSW,192,5.0,11.0,81,0.00,,,0.00,Weather View 32 v70,2013-03-12 07:20:00,
2013-03-12 03:30:00,34.0,29.1,29.06,SW,218,4.0,11.0,82,0.00,,,0.00,Weather View 32 v70,2013-03-12 07:30:00,
2013-03-12 03:37:00,34.0,29.1,29.06,SW,218,4.0,11.0,82,0.00,,,0.00,Weather View 32 v70,2013-03-12 07:37:00,
2013-03-12 03:50:00,33.8,29.2,29.06,SW,221,5.0,11.0,83,0.00,,,0.00,Weather View 32 v70,2013-03-12 07:50:00,
2013-03-12 04:00:00,33.8,29.2,29.06,SSW,198,3.0,11.0,83,0.00,,,0.00,Weather View 32 v70,2013-03-12 08:00:00,
2013-03-12 04:09:00,33.8,28.6,29.06,SW,217,7.0,10.0,81,0.00,,,0.00,Weather View 32 v70,2013-03-12 08:09:00,
2013-03-12 04:19:00,33.8,28.3,29.06,SSW,212,5.0,8.0,80,0.00,,,0.00,Weather View 32 v70,2013-03-12 08:19:00,
2013-03-12 04:30:00,33.6,27.8,29.06,SW,227,6.0,8.0,79,0.00,,,0.00,Weather View 32 v70,2013-03-12 08:30:00,
2013-03-12 04:38:00,33.6,27.8,29.06,SW,227,6.0,8.0,79,0.00,,,0.00,Weather View 32 v70,2013-03-12 08:38:00,
2013-03-12 04:50:00,33.6,27.2,29.06,SSW,208,4.0,8.0,77,0.00,,,0.00,Weather View 32 v70,2013-03-12 08:50:00,
2013-03-12 05:00:00,33.6,26.9,29.06,SSW,213,3.0,8.0,76,0.00,,,0.00,Weather View 32 v70,2013-03-12 09:00:00,
2013-03-12 05:10:00,33.6,26.9,29.06,SSW,199,3.0,8.0,76,0.00,,,0.00,Weather View 32 v70,2013-03-12 09:10:00,
2013-03-12 05:19:00,33.6,26.9,29.06,SW,226,5.0,8.0,76,0.00,,,0.00,Weather View 32 v70,2013-03-12 09:19:00,
2013-03-12 05:29:00,33.4,27.6,29.06,SSW,200,4.0,8.0,79,0.00,,,0.00,Weather View 32 v70,2013-03-12 09:29:00,
2013-03-12 05:39:00,33.4,27.6,29.06,SSW,200,4.0,8.0,79,0.00,,,0.00,Weather View 32 v70,2013-03-12 09:39:00,
2013-03-12 05:50:00,33.4,27.6,29.09,SW,232,5.0,8.0,79,0.00,,,0.00,Weather View 32 v70,2013-03-12 09:50:00,
2013-03-12 06:00:00,33.3,27.8,29.09,WSW,241,4.0,8.0,80,0.00,,,0.00,Weather View 32 v70,2013-03-12 10:00:00,
2013-03-12 06:10:00,33.1,28.5,29.09,SSW,207,5.0,9.0,83,0.00,,,0.00,Weather View 32 v70,2013-03-12 10:10:00,
2013-03-12 06:20:00,33.1,29.3,29.09,SW,220,4.0,9.0,86,0.00,,,0.00,Weather View 32 v70,2013-03-12 10:20:00,
2013-03-12 06:29:00,32.9,29.2,29.09,SW,219,7.0,9.0,86,0.00,,,0.00,Weather View 32 v70,2013-03-12 10:29:00,
2013-03-12 06:40:00,32.7,29.6,29.09,WSW,248,5.0,10.0,88,0.00,,,0.00,Weather View 32 v70,2013-03-12 10:40:00,
2013-03-12 06:49:00,32.7,29.0,29.09,SW,218,8.0,10.0,86,0.00,,,0.00,Weather View 32 v70,2013-03-12 10:49:00,
2013-03-12 06:59:00,32.7,26.6,29.09,SW,222,3.0,10.0,78,0.00,,,0.00,Weather View 32 v70,2013-03-12 10:59:00,
2013-03-12 07:09:00,32.7,26.0,29.09,SW,229,5.0,10.0,76,0.00,,,0.00,Weather View 32 v70,2013-03-12 11:09:00,
2013-03-12 07:19:00,32.7,26.3,29.09,WNW,293,5.0,10.0,77,0.00,,,0.00,Weather View 32 v70,2013-03-12 11:19:00,
2013-03-12 07:29:00,32.5,25.5,29.09,SSW,211,5.0,10.0,75,0.00,,,0.00,Weather View 32 v70,2013-03-12 11:29:00,
2013-03-12 07:40:00,32.4,25.3,29.09,SSW,204,2.0,8.0,75,0.00,,,0.00,Weather View 32 v70,2013-03-12 11:40:00,
2013-03-12 07:50:00,32.2,23.5,29.09,SSW,212,0.0,8.0,70,0.00,,,0.00,Weather View 32 v70,2013-03-12 11:50:00,
2013-03-12 08:00:00,32.4,23.7,29.09,SW,214,0.0,8.0,70,0.00,,,0.00,Weather View 32 v70,2013-03-12 12:00:00,
2013-03-12 08:10:00,32.4,23.3,29.09,SW,214,0.0,7.0,69,0.00,,,0.00,Weather View 32 v70,2013-03-12 12:10:00,
2013-03-12 08:20:00,32.4,23.0,29.12,SW,215,0.0,7.0,68,0.00,,,0.00,Weather View 32 v70,2013-03-12 12:20:00,
2013-03-12 08:30:00,32.4,22.6,29.12,SW,218,0.0,6.0,67,0.00,,,0.00,Weather View 32 v70,2013-03-12 12:30:00,
2013-03-12 08:40:00,32.4,22.6,29.12,SW,218,0.0,4.0,67,0.00,,,0.00,Weather View 32 v70,2013-03-12 12:40:00,
2013-03-12 08:50:00,32.4,23.0,29.12,SW,219,0.0,0.0,68,0.00,,,0.00,Weather View 32 v70,2013-03-12 12:50:00,
2013-03-12 09:00:00,32.4,22.3,29.12,SW,222,0.0,0.0,66,0.00,,,0.00,Weather View 32 v70,2013-03-12 13:00:00,
2013-03-12 09:10:00,32.4,22.3,29.12,SW,222,0.0,0.0,66,0.00,,,0.00,Weather View 32 v70,2013-03-12 13:10:00,
2013-03-12 09:20:00,32.4,22.6,29.12,SW,223,0.0,0.0,67,0.00,,,0.00,Weather View 32 v70,2013-03-12 13:20:00,
2013-03-12 09:30:00,32.4,23.3,29.12,SW,223,0.0,0.0,69,0.00,,,0.00,Weather View 32 v70,2013-03-12 13:30:00,
2013-03-12 09:40:00,32.4,24.0,29.12,SW,223,0.0,0.0,71,0.00,,,0.00,Weather View 32 v70,2013-03-12 13:40:00,
2013-03-12 09:50:00,32.5,24.2,29.12,SW,224,0.0,0.0,71,0.00,,,0.00,Weather View 32 v70,2013-03-12 13:50:00,
2013-03-12 10:00:00,32.5,24.2,29.12,SW,224,0.0,0.0,71,0.00,,,0.00,Weather View 32 v70,2013-03-12 14:00:00,
2013-03-12 10:21:00,32.4,22.6,29.15,WSW,246,0.0,0.0,67,0.00,,,0.00,Weather View 32 v70,2013-03-12 14:21:00,
2013-03-12 10:30:00,32.2,21.7,29.15,WNW,285,0.0,0.0,65,0.00,,,0.00,Weather View 32 v70,2013-03-12 14:30:00,
2013-03-12 10:40:00,32.0,21.9,29.15,SW,218,0.0,0.0,66,0.00,,,0.00,Weather View 32 v70,2013-03-12 14:40:00,
2013-03-12 10:50:00,32.2,22.1,29.15,WSW,242,0.0,0.0,66,0.00,,,0.00,Weather View 32 v70,2013-03-12 14:50:00,
2013-03-12 11:00:00,32.2,21.4,29.15,SW,234,0.0,0.0,64,0.00,,,0.00,Weather View 32 v70,2013-03-12 15:00:00,
2013-03-12 11:10:00,32.7,19.6,29.15,SSW,194,0.0,0.0,58,0.00,,,0.00,Weather View 32 v70,2013-03-12 15:10:00,
2013-03-12 11:20:00,33.3,18.8,29.15,SSW,208,2.0,6.0,55,0.00,,,0.00,Weather View 32 v70,2013-03-12 15:20:00,
2013-03-12 11:30:00,33.6,17.9,29.15,SW,214,5.0,8.0,52,0.00,,,0.00,Weather View 32 v70,2013-03-12 15:30:00,
2013-03-12 11:40:00,33.8,18.5,29.15,SSW,211,4.0,8.0,53,0.00,,,0.00,Weather View 32 v70,2013-03-12 15:40:00,
2013-03-12 11:50:00,33.6,17.9,29.15,WSW,248,0.0,9.0,52,0.00,,,0.00,Weather View 32 v70,2013-03-12 15:50:00,
2013-03-12 12:00:00,35.1,19.2,29.15,NW,305,5.0,9.0,52,0.00,,,0.00,Weather View 32 v70,2013-03-12 16:00:00,
2013-03-12 12:10:00,34.5,17.3,29.15,WNW,289,4.0,13.0,49,0.00,,,0.00,Weather View 32 v70,2013-03-12 16:10:00,
2013-03-12 12:20:00,34.5,18.2,29.15,WNW,289,5.0,13.0,51,0.00,,,0.00,Weather View 32 v70,2013-03-12 16:20:00,
2013-03-12 12:30:00,34.3,17.6,29.15,North,353,4.0,13.0,50,0.00,,,0.00,Weather View 32 v70,2013-03-12 16:30:00,
2013-03-12 12:40:00,34.2,17.9,29.15,SW,214,3.0,13.0,51,0.00,,,0.00,Weather View 32 v70,2013-03-12 16:40:00,
2013-03-12 12:45:00,34.2,17.9,29.15,SW,214,3.0,13.0,51,0.00,,,0.00,Weather View 32 v70,2013-03-12 16:45:00,
2013-03-12 13:00:00,34.2,17.0,29.15,WSW,245,4.0,13.0,49,0.00,,,0.00,Weather View 32 v70,2013-03-12 17:00:00,
2013-03-12 13:10:00,34.7,16.0,29.15,SW,233,7.0,11.0,46,0.00,,,0.00,Weather View 32 v70,2013-03-12 17:10:00,
2013-03-12 13:20:00,34.2,19.7,29.15,WNW,290,5.0,11.0,55,0.00,,,0.00,Weather View 32 v70,2013-03-12 17:20:00,
2013-03-12 13:30:00,34.3,18.5,29.15,West,268,3.0,11.0,52,0.00,,,0.00,Weather View 32 v70,2013-03-12 17:30:00,
2013-03-12 13:40:00,35.8,17.0,29.15,WSW,253,3.0,11.0,46,0.00,,,0.00,Weather View 32 v70,2013-03-12 17:40:00,
2013-03-12 13:50:00,35.8,14.9,29.15,WNW,296,5.0,11.0,42,0.00,,,0.00,Weather View 32 v70,2013-03-12 17:50:00,
2013-03-12 14:00:00,37.6,16.5,29.15,NW,320,3.0,11.0,42,0.00,,,0.00,Weather View 32 v70,2013-03-12 18:00:00,
2013-03-12 14:10:00,36.5,16.1,29.15,SSW,198,5.0,11.0,43,0.00,,,0.00,Weather View 32 v70,2013-03-12 18:10:00,
2013-03-12 14:20:00,36.3,15.9,29.15,SSW,213,4.0,11.0,43,0.00,,,0.00,Weather View 32 v70,2013-03-12 18:20:00,
2013-03-12 14:30:00,36.1,17.3,29.15,SSW,209,6.0,11.0,46,0.00,,,0.00,Weather View 32 v70,2013-03-12 18:30:00,
2013-03-12 14:40:00,36.1,16.3,29.15,NNW,332,7.0,11.0,44,0.00,,,0.00,Weather View 32 v70,2013-03-12 18:40:00,
2013-03-12 14:47:00,36.1,16.3,29.15,NNW,332,7.0,11.0,44,0.00,,,0.00,Weather View 32 v70,2013-03-12 18:47:00,
2013-03-12 15:00:00,35.2,18.0,29.15,South,191,7.0,10.0,49,0.00,,,0.00,Weather View 32 v70,2013-03-12 19:00:00,
2013-03-12 15:10:00,35.1,16.8,29.15,SSW,195,4.0,11.0,47,0.00,,,0.00,Weather View 32 v70,2013-03-12 19:10:00,
2013-03-12 15:20:00,35.2,18.4,29.15,SSW,198,6.0,11.0,50,0.00,,,0.00,Weather View 32 v70,2013-03-12 19:20:00,
2013-03-12 15:30:00,34.5,19.1,29.15,SSW,194,7.0,11.0,53,0.00,,,0.00,Weather View 32 v70,2013-03-12 19:30:00,
2013-03-12 15:40:00,34.0,18.6,29.15,WSW,239,4.0,11.0,53,0.00,,,0.00,Weather View 32 v70,2013-03-12 19:40:00,
2013-03-12 15:48:00,34.0,18.6,29.15,WSW,239,4.0,11.0,53,0.00,,,0.00,Weather View 32 v70,2013-03-12 19:48:00,
2013-03-12 16:00:00,33.6,19.6,29.15,SSW,193,8.0,11.0,56,0.00,,,0.00,Weather View 32 v70,2013-03-12 20:00:00,
2013-03-12 16:10:00,33.4,18.6,29.15,South,187,6.0,9.0,54,0.00,,,0.00,Weather View 32 v70,2013-03-12 20:10:00,
2013-03-12 16:20:00,33.4,18.6,29.15,South,183,8.0,9.0,54,0.00,,,0.00,Weather View 32 v70,2013-03-12 20:20:00,
2013-03-12 16:30:00,33.4,18.1,29.15,NW,326,5.0,9.0,53,0.00,,,0.00,Weather View 32 v70,2013-03-12 20:30:00,
2013-03-12 16:40:00,33.1,19.5,29.15,SSW,204,4.0,11.0,57,0.00,,,0.00,Weather View 32 v70,2013-03-12 20:40:00,
2013-03-12 16:49:00,33.1,19.5,29.15,SSW,204,4.0,11.0,57,0.00,,,0.00,Weather View 32 v70,2013-03-12 20:49:00,
2013-03-12 17:00:00,32.7,20.7,29.18,SSW,207,9.0,11.0,61,0.00,,,0.00,Weather View 32 v70,2013-03-12 21:00:00,
2013-03-12 17:10:00,32.4,20.0,29.18,SW,226,5.0,11.0,60,0.00,,,0.00,Weather View 32 v70,2013-03-12 21:10:00,
2013-03-12 17:20:00,32.4,19.6,29.18,ESE,113,5.0,11.0,59,0.00,,,0.00,Weather View 32 v70,2013-03-12 21:20:00,
2013-03-12 17:30:00,32.5,19.4,29.18,NE,50,5.0,11.0,58,0.00,,,0.00,Weather View 32 v70,2013-03-12 21:30:00,
2013-03-12 17:40:00,32.9,19.7,29.18,SSW,203,3.0,10.0,58,0.00,,,0.00,Weather View 32 v70,2013-03-12 21:40:00,
2013-03-12 17:49:00,32.9,19.7,29.18,SSW,203,3.0,10.0,58,0.00,,,0.00,Weather View 32 v70,2013-03-12 21:49:00,
2013-03-12 18:00:00,32.5,19.0,29.18,South,191,6.0,10.0,57,0.00,,,0.00,Weather View 32 v70,2013-03-12 22:00:00,
2013-03-12 18:10:00,32.0,18.1,29.18,SSW,212,5.0,11.0,56,0.00,,,0.00,Weather View 32 v70,2013-03-12 22:10:00,
2013-03-12 18:20:00,32.0,17.2,29.18,SSW,203,8.0,11.0,54,0.00,,,0.00,Weather View 32 v70,2013-03-12 22:20:00,
2013-03-12 18:30:00,32.2,16.5,29.18,SW,227,3.0,11.0,52,0.00,,,0.00,Weather View 32 v70,2013-03-12 22:30:00,
2013-03-12 18:40:00,32.2,17.0,29.18,SW,222,2.0,11.0,53,0.00,,,0.00,Weather View 32 v70,2013-03-12 22:40:00,
2013-03-12 18:50:00,32.0,15.9,29.21,SSE,156,4.0,11.0,51,0.00,,,0.00,Weather View 32 v70,2013-03-12 22:50:00,
2013-03-12 19:00:00,31.8,15.7,29.21,SSW,208,5.0,11.0,51,0.00,,,0.00,Weather View 32 v70,2013-03-12 23:00:00,
2013-03-12 19:10:00,31.8,14.8,29.21,SSW,194,4.0,10.0,49,0.00,,,0.00,Weather View 32 v70,2013-03-12 23:10:00,
2013-03-12 19:20:00,31.8,15.3,29.21,West,275,3.0,10.0,50,0.00,,,0.00,Weather View 32 v70,2013-03-12 23:20:00,
2013-03-12 19:30:00,31.6,15.1,29.21,SSW,210,4.0,9.0,50,0.00,,,0.00,Weather View 32 v70,2013-03-12 23:30:00,
2013-03-12 19:40:00,31.6,15.6,29.21,SSW,192,5.0,9.0,51,0.00,,,0.00,Weather View 32 v70,2013-03-12 23:40:00,
2013-03-12 19:51:00,31.6,15.1,29.21,SW,214,5.0,9.0,50,0.00,,,0.00,Weather View 32 v70,2013-03-12 23:51:00,
2013-03-12 20:00:00,31.5,16.3,29.21,WSW,248,3.0,9.0,53,0.00,,,0.00,Weather View 32 v70,2013-03-13 00:00:00,
2013-03-12 20:10:00,31.1,17.6,29.21,SSW,202,4.0,9.0,57,0.00,,,0.00,Weather View 32 v70,2013-03-13 00:10:00,
2013-03-12 20:20:00,30.7,18.9,29.21,SW,221,2.0,9.0,61,0.00,,,0.00,Weather View 32 v70,2013-03-13 00:20:00,
2013-03-12 20:30:00,30.7,19.6,29.21,SSW,194,4.0,9.0,63,0.00,,,0.00,Weather View 32 v70,2013-03-13 00:30:00,
2013-03-12 20:40:00,30.6,20.2,29.21,SW,227,4.0,9.0,65,0.00,,,0.00,Weather View 32 v70,2013-03-13 00:40:00,
2013-03-12 20:50:00,30.6,20.9,29.21,SSW,205,3.0,9.0,67,0.00,,,0.00,Weather View 32 v70,2013-03-13 00:50:00,
2013-03-12 21:00:00,30.2,22.3,29.21,SW,219,3.0,6.0,72,0.00,,,0.00,Weather View 32 v70,2013-03-13 01:00:00,
2013-03-12 21:10:00,29.8,21.9,29.21,SSW,210,0.0,6.0,72,0.00,,,0.00,Weather View 32 v70,2013-03-13 01:10:00,
2013-03-12 21:20:00,29.8,21.9,29.21,NW,306,3.0,6.0,72,0.00,,,0.00,Weather View 32 v70,2013-03-13 01:20:00,
2013-03-12 21:30:00,29.8,20.9,29.21,SW,216,2.0,6.0,69,0.00,,,0.00,Weather View 32 v70,2013-03-13 01:30:00,
2013-03-12 21:40:00,29.5,19.5,29.21,WSW,257,0.0,6.0,66,0.00,,,0.00,Weather View 32 v70,2013-03-13 01:40:00,
2013-03-12 21:50:00,29.3,18.6,29.21,SW,220,3.0,5.0,64,0.00,,,0.00,Weather View 32 v70,2013-03-13 01:50:00,
2013-03-12 22:00:00,29.5,16.1,29.21,SW,226,4.0,6.0,57,0.00,,,0.00,Weather View 32 v70,2013-03-13 02:00:00,
2013-03-12 22:10:00,29.7,15.5,29.21,SW,234,3.0,6.0,55,0.00,,,0.00,Weather View 32 v70,2013-03-13 02:10:00,
2013-03-12 22:20:00,29.7,15.5,29.21,West,277,4.0,6.0,55,0.00,,,0.00,Weather View 32 v70,2013-03-13 02:20:00,
2013-03-12 22:30:00,29.7,15.5,29.21,SSW,206,3.0,6.0,55,0.00,,,0.00,Weather View 32 v70,2013-03-13 02:30:00,
2013-03-12 22:40:00,29.7,15.9,29.21,SW,216,4.0,6.0,56,0.00,,,0.00,Weather View 32 v70,2013-03-13 02:40:00,
2013-03-12 22:50:00,29.7,16.3,29.21,SSW,207,0.0,6.0,57,0.00,,,0.00,Weather View 32 v70,2013-03-13 02:50:00,
2013-03-12 23:00:00,29.7,16.7,29.21,SW,216,3.0,6.0,58,0.00,,,0.00,Weather View 32 v70,2013-03-13 03:00:00,
2013-03-12 23:10:00,29.7,16.7,29.21,SW,230,4.0,5.0,58,0.00,,,0.00,Weather View 32 v70,2013-03-13 03:10:00,
2013-03-12 23:20:00,29.7,16.7,29.21,SW,222,4.0,5.0,58,0.00,,,0.00,Weather View 32 v70,2013-03-13 03:20:00,
2013-03-12 23:30:00,29.8,17.2,29.21,SSW,209,4.0,5.0,59,0.00,,,0.00,Weather View 32 v70,2013-03-13 03:30:00,
2013-03-12 23:40:00,29.8,17.6,29.21,SSW,212,3.0,5.0,60,0.00,,,0.00,Weather View 32 v70,2013-03-13 03:40:00,
2013-03-12 23:50:00,29.7,18.6,29.21,SSW,205,3.0,5.0,63,0.00,,,0.00,Weather View 32 v70,2013-03-13 03:50:00,